createdAt,value
2019-03-31T00:00:46.034Z,101538.66
2019-03-31T00:03:21.837Z,101540.30
2019-03-31T00:05:52.679Z,101532.66
2019-03-31T00:08:23.512Z,101536.33
2019-03-31T00:10:55.741Z,101539.17
2019-03-31T00:13:26.838Z,101546.45
2019-03-31T00:16:08.529Z,101541.85
2019-03-31T00:18:42.821Z,101546.55
2019-03-31T00:21:14.243Z,101545.13
2019-03-31T00:23:47.801Z,101552.03
2019-03-31T00:26:21.741Z,101550.83
2019-03-31T00:28:53.064Z,101544.81
2019-03-31T00:31:24.063Z,101551.77
2019-03-31T00:33:55.719Z,101553.02
2019-03-31T00:36:38.161Z,101550.13
2019-03-31T00:39:09.781Z,101539.95
2019-03-31T00:41:41.058Z,101550.05
2019-03-31T00:44:12.561Z,101541.52
2019-03-31T00:46:43.732Z,101545.67
2019-03-31T00:49:14.950Z,101550.83
2019-03-31T00:51:48.702Z,101544.56
2019-03-31T00:54:19.527Z,101546.31
2019-03-31T00:56:50.668Z,101542.23
2019-03-31T00:59:22.981Z,101544.17
2019-03-31T01:01:57.742Z,101546.61
2019-03-31T01:04:32.175Z,101550.11
2019-03-31T01:07:04.970Z,101553.09
2019-03-31T01:09:36.103Z,101550.17
2019-03-31T01:12:07.584Z,101558.40
2019-03-31T01:14:39.009Z,101551.27
2019-03-31T01:17:11.021Z,101549.00
2019-03-31T01:19:42.330Z,101548.84
2019-03-31T01:22:13.238Z,101550.17
2019-03-31T01:24:44.320Z,101549.50
2019-03-31T01:27:15.432Z,101552.94
2019-03-31T01:29:46.424Z,101553.72
2019-03-31T01:32:17.465Z,101552.00
2019-03-31T01:34:48.482Z,101553.72
2019-03-31T01:37:20.355Z,101557.72
2019-03-31T01:39:51.524Z,101563.04
2019-03-31T01:42:23.290Z,101564.84
2019-03-31T01:44:54.413Z,101564.27
2019-03-31T01:47:25.422Z,101567.80
2019-03-31T01:49:56.839Z,101564.95
2019-03-31T01:52:28.155Z,101571.17
2019-03-31T01:54:59.209Z,101573.64
2019-03-31T01:57:30.103Z,101570.20
2019-03-31T02:00:01.140Z,101574.58
2019-03-31T02:02:32.193Z,101571.30
2019-03-31T02:05:03.483Z,101576.15
2019-03-31T02:07:35.135Z,101573.77
2019-03-31T02:10:07.164Z,101578.02
2019-03-31T02:12:38.445Z,101579.04
2019-03-31T02:15:09.972Z,101581.23
2019-03-31T02:17:40.737Z,101580.61
2019-03-31T02:20:12.551Z,101589.84
2019-03-31T02:22:43.803Z,101583.07
2019-03-31T02:25:15.964Z,101586.16
2019-03-31T02:27:47.658Z,101591.09
2019-03-31T02:30:18.689Z,101597.86
2019-03-31T02:32:50.093Z,101599.11
2019-03-31T02:35:20.912Z,101601.33
2019-03-31T02:37:51.727Z,101603.48
2019-03-31T02:40:22.529Z,101608.98
2019-03-31T02:42:53.408Z,101604.43
2019-03-31T02:45:24.553Z,101611.09
2019-03-31T02:47:55.599Z,101614.81
2019-03-31T02:50:54.497Z,101616.68
2019-03-31T02:53:26.663Z,101614.95
2019-03-31T02:55:58.059Z,101625.98
2019-03-31T02:58:29.451Z,101631.97
2019-03-31T03:01:00.611Z,101627.11
2019-03-31T03:03:31.829Z,101632.00
2019-03-31T03:06:04.218Z,101632.88
2019-03-31T03:08:36.081Z,101635.77
2019-03-31T03:11:08.085Z,101641.46
2019-03-31T03:13:41.041Z,101635.66
2019-03-31T03:16:24.602Z,101645.88
2019-03-31T03:18:56.284Z,101648.17
2019-03-31T03:21:27.274Z,101648.17
2019-03-31T03:23:59.017Z,101655.67
2019-03-31T03:26:30.182Z,101662.77
2019-03-31T03:29:01.059Z,101657.69
2019-03-31T03:31:32.154Z,101659.81
2019-03-31T03:34:02.976Z,101663.40
2019-03-31T03:36:34.613Z,101664.73
2019-03-31T03:39:08.244Z,101668.84
2019-03-31T03:41:39.115Z,101670.39
2019-03-31T03:44:10.322Z,101679.75
2019-03-31T03:46:41.275Z,101680.81
2019-03-31T03:49:12.802Z,101682.41
2019-03-31T03:51:44.268Z,101679.36
2019-03-31T03:54:15.522Z,101686.52
2019-03-31T03:56:46.806Z,101690.03
2019-03-31T03:59:17.895Z,101685.72
2019-03-31T04:01:48.962Z,101686.73
2019-03-31T04:04:20.538Z,101688.89
2019-03-31T04:06:51.832Z,101686.64
2019-03-31T04:09:22.717Z,101682.29
2019-03-31T04:11:54.077Z,101688.59
2019-03-31T04:14:25.402Z,101702.25
2019-03-31T04:16:57.309Z,101695.62
2019-03-31T04:19:28.140Z,101701.11
2019-03-31T04:21:59.818Z,101701.45
2019-03-31T04:24:33.133Z,101709.34
2019-03-31T04:27:04.027Z,101702.56
2019-03-31T04:29:35.235Z,101701.11
2019-03-31T04:32:06.167Z,101709.88
2019-03-31T04:34:37.362Z,101709.53
2019-03-31T04:37:08.560Z,101711.87
2019-03-31T04:39:39.474Z,101717.16
2019-03-31T04:42:10.397Z,101716.31
2019-03-31T04:44:41.396Z,101720.08
2019-03-31T04:47:12.355Z,101723.73
2019-03-31T04:49:43.377Z,101723.46
2019-03-31T04:52:15.301Z,101727.50
2019-03-31T04:54:46.222Z,101727.55
2019-03-31T04:57:17.090Z,101739.37
2019-03-31T04:59:48.030Z,101733.66
2019-03-31T05:02:18.894Z,101747.45
2019-03-31T05:04:49.623Z,101737.70
2019-03-31T05:07:20.821Z,101746.86
2019-03-31T05:09:52.025Z,101749.86
2019-03-31T05:12:23.851Z,101751.24
2019-03-31T05:14:55.207Z,101751.02
2019-03-31T05:17:26.367Z,101753.81
2019-03-31T05:19:58.244Z,101756.06
2019-03-31T05:22:29.791Z,101759.58
2019-03-31T05:25:00.581Z,101758.66
2019-03-31T05:27:31.416Z,101766.67
2019-03-31T05:30:02.943Z,101768.86
2019-03-31T05:32:33.734Z,101771.97
2019-03-31T05:35:04.721Z,101775.81
2019-03-31T05:37:49.943Z,101772.72
2019-03-31T05:40:08.787Z,101776.21
2019-03-31T05:42:40.259Z,101782.26
2019-03-31T05:45:11.127Z,101782.48
2019-03-31T05:47:41.953Z,101788.57
2019-03-31T05:50:13.788Z,101790.23
2019-03-31T05:52:44.740Z,101800.24
2019-03-31T05:55:18.787Z,101806.35
2019-03-31T05:57:48.401Z,101803.46
2019-03-31T06:00:32.276Z,101810.41
2019-03-31T06:03:03.300Z,101820.96
2019-03-31T06:05:34.467Z,101823.67
2019-03-31T06:08:05.423Z,101824.62
2019-03-31T06:10:36.717Z,101831.23
2019-03-31T06:13:08.965Z,101831.15
2019-03-31T06:15:41.904Z,101838.19
2019-03-31T06:18:14.556Z,101840.92
2019-03-31T06:20:48.393Z,101845.73
2019-03-31T06:23:21.702Z,101853.49
2019-03-31T06:25:54.613Z,101858.59
2019-03-31T06:28:27.608Z,101866.14
2019-03-31T06:31:00.263Z,101864.83
2019-03-31T06:33:31.993Z,101865.70
2019-03-31T06:36:05.730Z,101874.98
2019-03-31T06:38:38.766Z,101870.30
2019-03-31T06:41:13.258Z,101872.31
2019-03-31T06:43:46.211Z,101880.53
2019-03-31T06:46:21.928Z,101876.03
2019-03-31T06:48:58.102Z,101881.55
2019-03-31T06:51:32.174Z,101885.32
2019-03-31T06:54:06.335Z,101886.65
2019-03-31T06:56:47.204Z,101883.02
2019-03-31T06:59:21.625Z,101895.48
2019-03-31T07:01:56.019Z,101896.34
2019-03-31T07:04:29.470Z,101900.01
2019-03-31T07:07:05.064Z,101908.48
2019-03-31T07:09:38.579Z,101909.89
2019-03-31T07:12:12.640Z,101913.97
2019-03-31T07:14:45.622Z,101918.83
2019-03-31T07:17:18.123Z,101918.28
2019-03-31T07:19:51.084Z,101913.58
2019-03-31T07:22:24.628Z,101912.59
2019-03-31T07:24:57.354Z,101924.13
2019-03-31T07:27:31.852Z,101922.34
2019-03-31T07:30:07.212Z,101928.37
2019-03-31T07:32:40.373Z,101934.45
2019-03-31T07:35:18.744Z,101935.52
2019-03-31T07:37:48.212Z,101937.85
2019-03-31T07:40:21.989Z,101943.86
2019-03-31T07:42:56.859Z,101946.11
2019-03-31T07:46:14.416Z,101951.11
2019-03-31T07:48:54.027Z,101956.18
2019-03-31T07:51:28.753Z,101959.23
2019-03-31T07:54:04.823Z,101965.39
2019-03-31T07:56:38.579Z,101959.43
2019-03-31T07:59:12.016Z,101961.46
2019-03-31T08:01:46.495Z,101965.18
2019-03-31T08:04:20.853Z,101968.25
2019-03-31T08:06:54.110Z,101974.12
2019-03-31T08:09:28.533Z,101977.77
2019-03-31T08:12:00.375Z,101974.24
2019-03-31T08:14:31.547Z,101984.56
2019-03-31T08:17:02.412Z,101986.55
2019-03-31T08:19:33.575Z,101983.12
2019-03-31T08:22:04.453Z,101978.66
2019-03-31T08:24:44.697Z,101983.44
2019-03-31T08:27:16.617Z,101993.92
2019-03-31T08:29:59.593Z,102003.41
2019-03-31T08:32:20.332Z,102003.50
2019-03-31T08:34:51.708Z,102004.14
2019-03-31T08:37:24.182Z,102006.43
2019-03-31T08:39:56.383Z,102010.70
2019-03-31T08:42:30.366Z,102008.63
2019-03-31T08:45:01.705Z,102010.83
2019-03-31T08:47:35.144Z,102009.34
2019-03-31T08:50:07.441Z,102016.20
2019-03-31T08:52:38.938Z,102025.51
2019-03-31T08:55:13.006Z,102036.92
2019-03-31T08:57:44.462Z,102043.72
2019-03-31T09:00:26.448Z,102035.34
2019-03-31T09:02:59.760Z,102037.72
2019-03-31T09:05:30.951Z,102041.17
2019-03-31T09:08:02.413Z,102047.00
2019-03-31T09:10:33.811Z,102045.92
2019-03-31T09:13:06.102Z,102056.52
2019-03-31T09:15:44.116Z,102051.81
2019-03-31T09:18:14.942Z,102064.23
2019-03-31T09:20:45.860Z,102063.92
2019-03-31T09:23:17.037Z,102066.94
2019-03-31T09:25:47.962Z,102060.83
2019-03-31T09:28:23.764Z,102073.02
2019-03-31T09:30:55.460Z,102078.48
2019-03-31T09:33:28.772Z,102073.91
2019-03-31T09:35:59.756Z,102080.68
2019-03-31T09:38:31.647Z,102079.84
2019-03-31T09:41:02.896Z,102075.58
2019-03-31T09:43:34.073Z,102078.54
2019-03-31T09:46:05.525Z,102078.83
2019-03-31T09:48:37.302Z,102075.49
2019-03-31T09:51:08.728Z,102086.77
2019-03-31T09:53:40.023Z,102092.64
2019-03-31T09:56:10.884Z,102089.94
2019-03-31T09:58:41.783Z,102093.88
2019-03-31T10:01:15.265Z,102081.06
2019-03-31T10:03:46.677Z,102089.48
2019-03-31T10:06:29.569Z,102077.16
2019-03-31T10:08:51.208Z,102097.30
2019-03-31T10:11:23.427Z,102092.33
2019-03-31T10:13:54.389Z,102086.88
2019-03-31T10:16:26.162Z,102097.30
2019-03-31T10:18:57.760Z,102090.78
2019-03-31T10:21:28.736Z,102092.75
2019-03-31T10:24:00.051Z,102086.77
2019-03-31T10:26:32.508Z,102099.39
2019-03-31T10:29:03.578Z,102099.39
2019-03-31T10:31:35.904Z,102077.31
2019-03-31T10:34:07.151Z,102077.31
2019-03-31T10:36:44.413Z,102085.69
2019-03-31T10:39:11.404Z,102093.02
2019-03-31T10:41:43.081Z,102114.34
2019-03-31T10:44:13.865Z,102114.34
2019-03-31T10:46:45.125Z,102112.39
2019-03-31T10:49:16.019Z,102110.95
2019-03-31T10:51:54.595Z,102100.18
2019-03-31T10:54:25.864Z,102100.11
2019-03-31T10:56:56.933Z,102097.66
2019-03-31T10:59:32.711Z,102100.42
2019-03-31T11:02:04.532Z,102100.42
2019-03-31T11:04:35.952Z,102098.16
2019-03-31T11:07:07.203Z,102108.91
2019-03-31T11:09:38.101Z,102109.86
2019-03-31T11:12:15.508Z,102103.88
2019-03-31T11:14:47.148Z,102092.53
2019-03-31T11:17:18.281Z,102092.94
2019-03-31T11:19:50.076Z,102111.48
2019-03-31T11:22:43.339Z,102122.90
2019-03-31T11:25:20.625Z,102118.13
2019-03-31T11:27:53.751Z,102120.20
2019-03-31T11:30:25.138Z,102133.65
2019-03-31T11:32:56.025Z,102119.53
2019-03-31T11:35:27.201Z,102116.23
2019-03-31T11:37:58.296Z,102116.23
2019-03-31T11:40:29.340Z,102127.46
2019-03-31T11:43:01.234Z,102125.32
2019-03-31T11:45:32.292Z,102122.05
2019-03-31T11:48:03.320Z,102136.09
2019-03-31T11:50:35.196Z,102127.55
2019-03-31T11:53:08.295Z,102132.44
2019-03-31T11:55:43.618Z,102129.54
2019-03-31T11:58:14.837Z,102122.87
2019-03-31T12:00:53.301Z,102141.36
2019-03-31T12:03:30.770Z,102136.27
2019-03-31T12:06:00.740Z,102136.84
2019-03-31T12:08:33.521Z,102126.09
2019-03-31T12:11:04.432Z,102127.91
2019-03-31T12:13:36.106Z,102126.11
2019-03-31T12:16:07.737Z,102126.89
2019-03-31T12:18:38.730Z,102134.02
2019-03-31T12:21:13.746Z,102132.84
2019-03-31T12:23:45.268Z,102134.17
2019-03-31T12:26:16.125Z,102122.55
2019-03-31T12:28:48.406Z,102133.56
2019-03-31T12:31:19.941Z,102129.72
2019-03-31T12:33:51.231Z,102133.98
2019-03-31T12:36:23.034Z,102132.39
2019-03-31T12:38:56.945Z,102128.42
2019-03-31T12:41:28.048Z,102135.89
2019-03-31T12:44:04.113Z,102128.05
2019-03-31T12:46:37.924Z,102128.67
2019-03-31T12:49:10.101Z,102132.53
2019-03-31T12:51:42.559Z,102146.44
2019-03-31T12:54:17.166Z,102136.72
2019-03-31T12:56:48.299Z,102139.41
2019-03-31T12:59:20.285Z,102140.72
2019-03-31T13:01:51.597Z,102137.45
2019-03-31T13:04:24.166Z,102137.38
2019-03-31T13:06:58.628Z,102139.19
2019-03-31T13:09:30.845Z,102143.61
2019-03-31T13:12:10.352Z,102146.31
2019-03-31T13:14:46.671Z,102146.06
2019-03-31T13:17:18.038Z,102145.64
2019-03-31T13:19:49.570Z,102144.86
2019-03-31T13:22:20.666Z,102150.38
2019-03-31T13:24:54.425Z,102141.61
2019-03-31T13:27:25.329Z,102139.84
2019-03-31T13:29:56.798Z,102131.92
2019-03-31T13:32:27.591Z,102129.78
2019-03-31T13:34:58.912Z,102138.28
2019-03-31T13:37:30.071Z,102130.80
2019-03-31T13:40:01.164Z,102134.57
2019-03-31T13:42:32.103Z,102142.00
2019-03-31T13:45:03.489Z,102137.14
2019-03-31T13:47:37.055Z,102135.66
2019-03-31T13:50:08.857Z,102132.36
2019-03-31T13:52:40.404Z,102142.21
2019-03-31T13:55:11.343Z,102141.69
2019-03-31T13:57:44.154Z,102146.70
2019-03-31T14:00:25.361Z,102140.69
2019-03-31T14:02:54.425Z,102134.38
2019-03-31T14:05:25.835Z,102149.69
2019-03-31T14:08:00.520Z,102134.91
2019-03-31T14:10:32.401Z,102135.06
2019-03-31T14:13:05.417Z,102131.19
2019-03-31T14:15:37.818Z,102131.66
2019-03-31T14:18:10.999Z,102140.23
2019-03-31T14:20:47.789Z,102134.12
2019-03-31T14:23:24.127Z,102134.47
2019-03-31T14:25:53.542Z,102144.33
2019-03-31T14:28:24.628Z,102143.73
2019-03-31T14:30:55.763Z,102152.87
2019-03-31T14:33:27.444Z,102150.52
2019-03-31T14:35:58.556Z,102136.44
2019-03-31T14:38:39.895Z,102140.38
2019-03-31T14:41:06.791Z,102144.14
2019-03-31T14:43:39.901Z,102145.91
2019-03-31T14:46:11.720Z,102153.23
2019-03-31T14:48:42.816Z,102154.48
2019-03-31T14:51:14.360Z,102158.34
2019-03-31T14:53:45.971Z,102157.94
2019-03-31T14:56:23.407Z,102155.20
2019-03-31T14:58:54.249Z,102154.74
2019-03-31T15:01:25.693Z,102155.14
2019-03-31T15:03:56.840Z,102157.16
2019-03-31T15:06:27.903Z,102160.55
2019-03-31T15:08:59.052Z,102149.27
2019-03-31T15:11:30.526Z,102153.14
2019-03-31T15:14:01.792Z,102147.45
2019-03-31T15:16:33.095Z,102145.27
2019-03-31T15:19:03.931Z,102149.02
2019-03-31T15:21:35.055Z,102155.42
2019-03-31T15:24:06.736Z,102152.98
2019-03-31T15:26:37.664Z,102145.61
2019-03-31T15:29:09.016Z,102146.47
2019-03-31T15:31:40.276Z,102160.16
2019-03-31T15:34:12.511Z,102156.08
2019-03-31T15:36:43.479Z,102153.83
2019-03-31T15:39:14.817Z,102160.28
2019-03-31T15:41:46.559Z,102160.81
2019-03-31T15:44:18.180Z,102163.22
2019-03-31T15:46:49.228Z,102167.21
2019-03-31T15:49:22.418Z,102161.64
2019-03-31T15:51:53.661Z,102169.52
2019-03-31T15:54:24.867Z,102166.09
2019-03-31T15:56:56.350Z,102173.41
2019-03-31T15:59:27.418Z,102173.48
2019-03-31T16:01:58.573Z,102175.41
2019-03-31T16:04:29.600Z,102178.97
2019-03-31T16:07:00.541Z,102173.61
2019-03-31T16:09:31.020Z,102172.11
2019-03-31T16:12:01.811Z,102177.84
2019-03-31T16:14:32.125Z,102171.11
2019-03-31T16:17:02.477Z,102174.44
2019-03-31T16:19:32.887Z,102173.11
2019-03-31T16:22:03.809Z,102184.72
2019-03-31T16:24:39.721Z,102178.74
2019-03-31T16:27:11.398Z,102176.37
2019-03-31T16:29:41.997Z,102179.28
2019-03-31T16:32:12.891Z,102175.34
2019-03-31T16:34:45.182Z,102181.92
2019-03-31T16:37:16.312Z,102171.63
2019-03-31T16:39:47.826Z,102172.89
2019-03-31T16:42:18.602Z,102174.02
2019-03-31T16:44:58.063Z,102172.75
2019-03-31T16:47:24.702Z,102182.98
2019-03-31T16:49:58.176Z,102179.78
2019-03-31T16:52:30.937Z,102187.14
2019-03-31T16:55:01.731Z,102190.61
2019-03-31T16:57:33.134Z,102186.95
2019-03-31T17:00:04.996Z,102186.37
2019-03-31T17:02:35.447Z,102193.42
2019-03-31T17:05:20.671Z,102192.62
2019-03-31T17:07:41.088Z,102200.66
2019-03-31T17:10:13.642Z,102197.79
2019-03-31T17:12:44.463Z,102197.25
2019-03-31T17:15:16.412Z,102206.81
2019-03-31T17:17:46.876Z,102197.03
2019-03-31T17:20:19.238Z,102206.14
2019-03-31T17:22:50.343Z,102199.53
2019-03-31T17:25:23.400Z,102202.66
2019-03-31T17:27:54.500Z,102202.70
2019-03-31T17:30:25.040Z,102199.96
2019-03-31T17:32:55.409Z,102207.67
2019-03-31T17:35:26.362Z,102209.37
2019-03-31T17:38:04.723Z,102212.78
2019-03-31T17:40:36.641Z,102207.12
2019-03-31T17:43:07.036Z,102209.78
2019-03-31T17:45:40.887Z,102211.11
2019-03-31T17:48:11.831Z,102213.88
2019-03-31T17:50:42.742Z,102214.86
2019-03-31T17:53:20.320Z,102217.52
2019-03-31T17:55:51.797Z,102221.23
2019-03-31T17:58:22.362Z,102221.45
2019-03-31T18:00:54.505Z,102219.50
2019-03-31T18:03:28.631Z,102216.79
2019-03-31T18:05:59.007Z,102221.77
2019-03-31T18:08:31.006Z,102229.03
2019-03-31T18:11:02.162Z,102225.99
2019-03-31T18:13:33.769Z,102231.82
2019-03-31T18:16:06.498Z,102237.75
2019-03-31T18:18:36.842Z,102229.89
2019-03-31T18:21:07.425Z,102234.51
2019-03-31T18:23:37.780Z,102236.19
2019-03-31T18:26:15.047Z,102236.14
2019-03-31T18:28:45.799Z,102241.50
2019-03-31T18:31:16.360Z,102238.61
2019-03-31T18:33:48.849Z,102237.95
2019-03-31T18:36:19.552Z,102241.98
2019-03-31T18:38:49.937Z,102240.72
2019-03-31T18:41:25.024Z,102240.25
2019-03-31T18:43:56.740Z,102239.79
2019-03-31T18:46:27.720Z,102246.45
2019-03-31T18:48:58.640Z,102249.95
2019-03-31T18:51:29.838Z,102246.58
2019-03-31T18:54:28.850Z,102246.09
2019-03-31T18:57:24.291Z,102249.67
2019-03-31T19:00:02.009Z,102256.46
2019-03-31T19:03:13.312Z,102251.38
2019-03-31T19:06:02.270Z,102253.63
2019-03-31T19:08:54.516Z,102259.51
2019-03-31T19:11:47.818Z,102267.13
2019-03-31T19:14:34.110Z,102264.07
2019-03-31T19:17:40.122Z,102271.52
2019-03-31T19:20:30.252Z,102269.84
2019-03-31T19:23:12.726Z,102269.14
2019-03-31T19:26:06.132Z,102280.38
2019-03-31T19:29:05.362Z,102282.89
2019-03-31T19:31:54.611Z,102287.84
2019-03-31T19:34:50.057Z,102296.38
2019-03-31T19:37:36.050Z,102303.27
2019-03-31T19:40:16.920Z,102303.00
2019-03-31T19:43:24.621Z,102304.84
2019-03-31T19:46:13.071Z,102305.41
2019-03-31T19:49:07.420Z,102307.84
2019-03-31T19:51:47.221Z,102316.72
2019-03-31T19:54:51.804Z,102313.45
2019-03-31T19:57:32.154Z,102313.96
2019-03-31T20:00:25.766Z,102323.49
2019-03-31T20:03:03.885Z,102329.54
2019-03-31T20:05:59.266Z,102335.77
2019-03-31T20:08:47.514Z,102328.54
2019-03-31T20:11:34.563Z,102331.84
2019-03-31T20:14:37.962Z,102331.10
2019-03-31T20:17:17.160Z,102346.52
2019-03-31T20:20:02.857Z,102345.02
2019-03-31T20:22:47.763Z,102348.80
2019-03-31T20:25:39.948Z,102352.02
2019-03-31T20:28:22.967Z,102348.05
2019-03-31T20:31:11.469Z,102342.95
2019-03-31T20:33:57.276Z,102346.76
2019-03-31T20:36:40.110Z,102348.58
2019-03-31T20:39:16.867Z,102354.88
2019-03-31T20:41:52.281Z,102348.95
2019-03-31T20:44:22.614Z,102347.22
2019-03-31T20:46:53.663Z,102352.93
2019-03-31T20:49:24.092Z,102346.84
2019-03-31T20:51:56.297Z,102355.50
2019-03-31T20:54:26.766Z,102358.84
2019-03-31T20:56:57.092Z,102356.95
2019-03-31T20:59:27.724Z,102359.64
2019-03-31T21:01:58.226Z,102363.65
2019-03-31T21:04:28.732Z,102360.74
2019-03-31T21:06:59.057Z,102361.14
2019-03-31T21:09:44.411Z,102364.51
2019-03-31T21:12:03.623Z,102361.17
2019-03-31T21:14:33.991Z,102365.18
2019-03-31T21:17:05.913Z,102365.99
2019-03-31T21:19:36.499Z,102374.45
2019-03-31T21:22:06.809Z,102366.72
2019-03-31T21:24:38.180Z,102371.20
2019-03-31T21:27:09.087Z,102371.76
2019-03-31T21:29:39.914Z,102377.11
2019-03-31T21:32:10.691Z,102379.70
2019-03-31T21:34:41.790Z,102377.56
2019-03-31T21:37:12.241Z,102378.86
2019-03-31T21:39:42.871Z,102380.95
2019-03-31T21:42:13.170Z,102379.98
2019-03-31T21:44:43.433Z,102388.75
2019-03-31T21:47:13.798Z,102389.69
2019-03-31T21:49:44.167Z,102389.34
2019-03-31T21:52:14.612Z,102392.14
2019-03-31T21:54:44.944Z,102397.36
2019-03-31T21:57:15.859Z,102396.87
2019-03-31T21:59:47.294Z,102395.66
2019-03-31T22:02:17.530Z,102393.55
2019-03-31T22:04:48.520Z,102397.99
2019-03-31T22:07:19.974Z,102390.13
2019-03-31T22:09:52.204Z,102393.22
2019-03-31T22:12:22.907Z,102393.64
2019-03-31T22:14:53.640Z,102396.20
2019-03-31T22:17:25.116Z,102395.75
2019-03-31T22:19:55.438Z,102396.67
2019-03-31T22:22:26.026Z,102397.03
2019-03-31T22:24:56.262Z,102399.73
2019-03-31T22:27:26.831Z,102400.61
2019-03-31T22:29:57.480Z,102403.34
2019-03-31T22:32:27.883Z,102401.53
2019-03-31T22:34:58.408Z,102400.64
2019-03-31T22:37:28.725Z,102397.99
2019-03-31T22:39:59.231Z,102395.41
2019-03-31T22:42:30.064Z,102405.16
2019-03-31T22:45:00.525Z,102401.67
2019-03-31T22:47:31.311Z,102404.37
2019-03-31T22:50:01.581Z,102414.03
2019-03-31T22:52:31.901Z,102402.59
2019-03-31T22:55:02.701Z,102410.63
2019-03-31T22:57:33.029Z,102412.02
2019-03-31T23:00:03.428Z,102415.16
2019-03-31T23:02:33.876Z,102415.19
2019-03-31T23:05:04.200Z,102409.05
2019-03-31T23:07:34.519Z,102409.95
2019-03-31T23:10:07.665Z,102410.39
2019-03-31T23:12:38.677Z,102414.34
2019-03-31T23:15:09.065Z,102415.66
2019-03-31T23:17:39.641Z,102406.44
2019-03-31T23:20:10.101Z,102408.23
2019-03-31T23:22:40.404Z,102411.30
2019-03-31T23:25:11.091Z,102410.00
2019-03-31T23:27:41.673Z,102403.00
2019-03-31T23:30:12.195Z,102404.80
2019-03-31T23:32:42.588Z,102405.22
2019-03-31T23:35:13.098Z,102410.08
2019-03-31T23:37:43.318Z,102406.54
2019-03-31T23:40:13.966Z,102403.88
2019-03-31T23:42:44.407Z,102408.28
2019-03-31T23:45:15.034Z,102408.63
2019-03-31T23:47:45.480Z,102412.19
2019-03-31T23:50:15.788Z,102403.45
2019-03-31T23:52:46.043Z,102412.66
2019-03-31T23:55:16.677Z,102405.62
2019-03-31T23:57:47.417Z,102408.77
